Ship Status Report: callsign 3FCQ3

sailwx.info

Track history (hours):
 
Tides and Currents Weather Stations Pressure Air Temp Water Temp Dewpoint Dewpoint Depression Visibility Wind Speed Wind Dir Waves Ship Positions

Callsign 3FCQ3 (name unknown)

Last reported at 2014-Jul-05 16:10 UTC. Time now 2014-Dec-20 13:44 UTC.
Position N 43°42' W 005°21'.
Warning: this ship's position is months out of date.

Date/timePositionNaut miles runAvg speedWind from/ knotsBaromVisibWave heightAir tempDewpointWater temp
2014-Jul-05 16:10N 43°42' W 005°21'711.3
2014-Jul-05 15:32N 43°43' W 005°30'381 7.9
2014-Jul-03 15:09N 38°14' W 009°43'6 9.1
2014-Jul-03 14:28N 38°08' W 009°41'8 9.0
2014-Jul-03 13:33N 37°60' W 009°39'9 8.9
2014-Jul-03 12:33N 37°51' W 009°36'9 8.8
2014-Jul-03 11:33N 37°42' W 009°34'9 9.0
2014-Jul-03 10:32N 37°34' W 009°31'220 8.5
2014-Jul-02 08:28N 35°59' W 005°23'5 5.9
2014-Jul-02 07:33N 35°55' W 005°19'0 0.0
2014-Jul-02 06:31N 35°54' W 005°19'0 0.0
2014-Jul-02 05:32N 35°54' W 005°19'0 0.0
2014-Jul-02 04:33N 35°54' W 005°19'0 0.0
2014-Jul-02 03:33N 35°55' W 005°19'0 0.0
2014-Jul-02 02:33N 35°55' W 005°19'0 0.0
2014-Jul-02 01:33N 35°55' W 005°19'0 0.1
2014-Jul-02 00:33N 35°55' W 005°19'0 0.0
2014-Jul-01 23:31N 35°55' W 005°19'0 0.1
2014-Jul-01 22:27N 35°54' W 005°19'0 0.1
2014-Jul-01 21:29N 35°55' W 005°19'0 0.1
2014-Jul-01 20:33N 35°55' W 005°19'0 0.1
2014-Jul-01 19:32N 35°55' W 005°19'0 0.0
2014-Jul-01 18:33N 35°54' W 005°19'0 0.0
2014-Jul-01 17:31N 35°54' W 005°19'0 0.0
2014-Jul-01 16:33N 35°54' W 005°19'0 0.0
2014-Jul-01 15:33N 35°54' W 005°19'0 0.0
2014-Jul-01 14:33N 35°54' W 005°19'0 0.0
2014-Jul-01 13:33N 35°55' W 005°19'0 0.0
2014-Jul-01 12:33N 35°54' W 005°19'0 0.0
2014-Jul-01 11:33N 35°54' W 005°19'2 2.1
2014-Jul-01 10:32N 35°56' W 005°17'170 9.5
2014-Jun-30 16:33N 36°23' W 001°49'35210.0
2014-Jun-29 05:25N 37°12' E 005°26'20 9.6
2014-Jun-29 03:21N 37°14' E 005°50'5310.8
2014-Jun-28 22:29N 37°15' E 006°57'2010.2
2014-Jun-28 20:32N 37°16' E 007°22'9 9.3
2014-Jun-28 19:32N 37°17' E 007°33'10 9.4
2014-Jun-28 18:25N 37°17' E 007°46'910.0
2014-Jun-28 17:31N 37°17' E 007°58'1010.5
2014-Jun-28 16:33N 37°18' E 008°10'1111.3
2014-Jun-28 15:33N 37°18' E 008°25'1111.3
2014-Jun-28 14:32N 37°18' E 008°39'1411.0
2014-Jun-28 13:18N 37°19' E 008°56'810.5
2014-Jun-28 12:33N 37°21' E 009°06'3110.3
2014-Jun-28 09:34N 37°32' E 009°42'1010.1
2014-Jun-28 08:34N 37°36' E 009°54'10 9.7
2014-Jun-28 07:34N 37°39' E 010°05'1010.0
2014-Jun-28 06:34N 37°38' E 010°18'1010.4
2014-Jun-28 05:34N 37°36' E 010°30'1111.0
2014-Jun-28 04:34N 37°33' E 010°44'1110.7
2014-Jun-28 03:34N 37°30' E 010°57'1010.4
2014-Jun-28 02:34N 37°28' E 011°10'9310.3
2014-Jun-27 17:34N 36°53' E 012°57'1010.0
2014-Jun-27 16:34N 36°49' E 013°09'10 9.5
2014-Jun-27 15:34N 36°47' E 013°20'10 9.9
2014-Jun-27 14:34N 36°44' E 013°32'10 9.8
2014-Jun-27 13:33N 36°41' E 013°44'10 9.9
2014-Jun-27 12:34N 36°38' E 013°56'1010.1
2014-Jun-27 11:34N 36°35' E 014°08'1010.3
2014-Jun-27 10:34N 36°32' E 014°20'1110.6
2014-Jun-27 09:34N 36°28' E 014°32'1010.4
2014-Jun-27 08:34N 36°25' E 014°45'  
Track history (hours):
 
Tides and Currents Weather Stations Pressure Air Temp Water Temp Dewpoint Dewpoint Depression Visibility Wind Speed Wind Dir Waves Ship Positions

Callsign 3FCQ3 (name unknown)

Last reported at 2014-Jul-05 16:10 UTC. Time now 2014-Dec-20 13:44 UTC.
Position N 43°42' W 005°21'.
Warning: this ship's position is months out of date.

Date/timePositionNaut miles runAvg speedWind from/ knotsBaromVisibWave heightAir tempDewpointWater temp
2014-Jul-05 16:10N 43°42' W 005°21'711.3
2014-Jul-05 15:32N 43°43' W 005°30'381 7.9
2014-Jul-03 15:09N 38°14' W 009°43'6 9.1
2014-Jul-03 14:28N 38°08' W 009°41'8 9.0
2014-Jul-03 13:33N 37°60' W 009°39'9 8.9
2014-Jul-03 12:33N 37°51' W 009°36'9 8.8
2014-Jul-03 11:33N 37°42' W 009°34'9 9.0
2014-Jul-03 10:32N 37°34' W 009°31'220 8.5
2014-Jul-02 08:28N 35°59' W 005°23'5 5.9
2014-Jul-02 07:33N 35°55' W 005°19'0 0.0
2014-Jul-02 06:31N 35°54' W 005°19'0 0.0
2014-Jul-02 05:32N 35°54' W 005°19'0 0.0
2014-Jul-02 04:33N 35°54' W 005°19'0 0.0
2014-Jul-02 03:33N 35°55' W 005°19'0 0.0
2014-Jul-02 02:33N 35°55' W 005°19'0 0.0
2014-Jul-02 01:33N 35°55' W 005°19'0 0.1
2014-Jul-02 00:33N 35°55' W 005°19'0 0.0
2014-Jul-01 23:31N 35°55' W 005°19'0 0.1
2014-Jul-01 22:27N 35°54' W 005°19'0 0.1
2014-Jul-01 21:29N 35°55' W 005°19'0 0.1
2014-Jul-01 20:33N 35°55' W 005°19'0 0.1
2014-Jul-01 19:32N 35°55' W 005°19'0 0.0
2014-Jul-01 18:33N 35°54' W 005°19'0 0.0
2014-Jul-01 17:31N 35°54' W 005°19'0 0.0
2014-Jul-01 16:33N 35°54' W 005°19'0 0.0
2014-Jul-01 15:33N 35°54' W 005°19'0 0.0
2014-Jul-01 14:33N 35°54' W 005°19'0 0.0
2014-Jul-01 13:33N 35°55' W 005°19'0 0.0
2014-Jul-01 12:33N 35°54' W 005°19'0 0.0
2014-Jul-01 11:33N 35°54' W 005°19'2 2.1
2014-Jul-01 10:32N 35°56' W 005°17'170 9.5
2014-Jun-30 16:33N 36°23' W 001°49'35210.0
2014-Jun-29 05:25N 37°12' E 005°26'20 9.6
2014-Jun-29 03:21N 37°14' E 005°50'5310.8
2014-Jun-28 22:29N 37°15' E 006°57'2010.2
2014-Jun-28 20:32N 37°16' E 007°22'9 9.3
2014-Jun-28 19:32N 37°17' E 007°33'10 9.4
2014-Jun-28 18:25N 37°17' E 007°46'910.0
2014-Jun-28 17:31N 37°17' E 007°58'1010.5
2014-Jun-28 16:33N 37°18' E 008°10'1111.3
2014-Jun-28 15:33N 37°18' E 008°25'1111.3
2014-Jun-28 14:32N 37°18' E 008°39'1411.0
2014-Jun-28 13:18N 37°19' E 008°56'810.5
2014-Jun-28 12:33N 37°21' E 009°06'3110.3
2014-Jun-28 09:34N 37°32' E 009°42'1010.1
2014-Jun-28 08:34N 37°36' E 009°54'10 9.7
2014-Jun-28 07:34N 37°39' E 010°05'1010.0
2014-Jun-28 06:34N 37°38' E 010°18'1010.4
2014-Jun-28 05:34N 37°36' E 010°30'1111.0
2014-Jun-28 04:34N 37°33' E 010°44'1110.7
2014-Jun-28 03:34N 37°30' E 010°57'1010.4
2014-Jun-28 02:34N 37°28' E 011°10'9310.3
2014-Jun-27 17:34N 36°53' E 012°57'1010.0
2014-Jun-27 16:34N 36°49' E 013°09'10 9.5
2014-Jun-27 15:34N 36°47' E 013°20'10 9.9
2014-Jun-27 14:34N 36°44' E 013°32'10 9.8
2014-Jun-27 13:33N 36°41' E 013°44'10 9.9
2014-Jun-27 12:34N 36°38' E 013°56'1010.1
2014-Jun-27 11:34N 36°35' E 014°08'1010.3
2014-Jun-27 10:34N 36°32' E 014°20'1110.6
2014-Jun-27 09:34N 36°28' E 014°32'1010.4
2014-Jun-27 08:34N 36°25' E 014°45'  

Dump ship's entire track history